Sand Hill, Arkansas
Current Conditions -  °F | °C
As of 4:56 PM on Wednesday 22 Oct 2014 (Local Time) from KSRC Reporting Station
Clear Clear  
Wind Chill: 68°   Ceiling: Unl
Heat Index: 68°   Visibility: 10mi
Dew Point: 44°   Wind: 10mph
Humidity: 42%   Direction: 60°ENE
Pressure: 30.19"   Gusts: NA
Location:  34.9712°N, 91.571°W
Report Text: KSRC 222156Z AUTO 06009KT 10SM CLR 20/07 A3019 RMK AO2 SLP228 T02000067 TSNO
Loading
Personal Weather Stations






























Interactive Weather Map
Tropical Storm Tracking
New forecast layout! Learn more

10-Day Weather Forecast

Advertisements
Track Severe Weather on mobile